createdAt,value
2018-11-01T00:02:24.779Z,6.70
2018-11-01T00:04:53.385Z,7.27
2018-11-01T00:07:22.020Z,3.70
2018-11-01T00:09:50.612Z,5.77
2018-11-01T00:12:19.241Z,4.97
2018-11-01T00:14:47.896Z,3.00
2018-11-01T00:17:16.584Z,2.57
2018-11-01T00:19:45.184Z,5.00
2018-11-01T00:22:13.979Z,6.03
2018-11-01T00:24:42.753Z,10.50
2018-11-01T00:27:11.390Z,2.97
2018-11-01T00:29:40.015Z,5.97
2018-11-01T00:32:09.091Z,10.20
2018-11-01T00:34:37.705Z,11.37
2018-11-01T00:37:06.495Z,6.43
2018-11-01T00:39:35.155Z,6.97
2018-11-01T00:42:03.772Z,5.57
2018-11-01T00:44:32.409Z,7.20
2018-11-01T00:47:01.035Z,4.20
2018-11-01T00:49:29.768Z,10.00
2018-11-01T00:51:58.435Z,2.70
2018-11-01T00:54:27.057Z,7.47
2018-11-01T00:56:55.697Z,8.60
2018-11-01T00:59:24.306Z,6.77
2018-11-01T01:01:52.917Z,5.73
2018-11-01T01:04:21.555Z,4.50
2018-11-01T01:06:50.221Z,7.97
2018-11-01T01:09:18.976Z,4.07
2018-11-01T01:11:47.605Z,5.13
2018-11-01T01:14:16.266Z,6.00
2018-11-01T01:16:44.929Z,5.37
2018-11-01T01:19:13.544Z,12.53
2018-11-01T01:21:42.204Z,5.87
2018-11-01T01:24:10.835Z,11.23
2018-11-01T01:26:39.465Z,8.97
2018-11-01T01:29:08.137Z,8.50
2018-11-01T01:31:36.753Z,7.50
2018-11-01T01:34:05.980Z,8.17
2018-11-01T01:36:34.675Z,6.80
2018-11-01T01:39:03.490Z,5.60
2018-11-01T01:41:32.110Z,7.30
2018-11-01T01:44:00.724Z,7.27
2018-11-01T01:46:29.311Z,6.37
2018-11-01T01:48:57.901Z,5.17
2018-11-01T01:51:26.512Z,5.87
2018-11-01T01:53:55.126Z,11.13
2018-11-01T01:56:23.732Z,10.30
2018-11-01T01:58:52.376Z,10.00
2018-11-01T02:01:21.001Z,4.03
2018-11-01T02:03:49.631Z,4.93
2018-11-01T02:06:18.278Z,9.13
2018-11-01T02:08:46.903Z,7.90
2018-11-01T02:11:15.567Z,9.13
2018-11-01T02:13:44.227Z,5.77
2018-11-01T02:16:12.861Z,7.80
2018-11-01T02:18:41.654Z,6.87
2018-11-01T02:21:16.569Z,5.53
2018-11-01T02:23:45.193Z,8.80
2018-11-01T02:26:13.811Z,9.90
2018-11-01T02:28:42.469Z,8.57
2018-11-01T02:31:11.101Z,9.17
2018-11-01T02:33:39.748Z,5.63
2018-11-01T02:36:08.494Z,9.70
2018-11-01T02:38:37.164Z,12.77
2018-11-01T02:41:05.730Z,8.17
2018-11-01T02:43:34.329Z,15.03
2018-11-01T02:46:02.968Z,11.83
2018-11-01T02:48:31.600Z,7.83
2018-11-01T02:51:00.248Z,12.00
2018-11-01T02:53:28.881Z,8.70
2018-11-01T02:55:57.522Z,8.70
2018-11-01T02:58:26.187Z,6.53
2018-11-01T03:00:54.848Z,8.40
2018-11-01T03:03:23.484Z,12.70
2018-11-01T03:05:52.104Z,3.73
2018-11-01T03:08:21.218Z,8.63
2018-11-01T03:10:49.866Z,5.50
2018-11-01T03:13:18.512Z,7.53
2018-11-01T03:15:47.156Z,7.90
2018-11-01T03:18:15.792Z,17.47
2018-11-01T03:20:44.406Z,4.93
2018-11-01T03:23:13.125Z,6.63
2018-11-01T03:25:41.725Z,7.30
2018-11-01T03:28:10.370Z,13.50
2018-11-01T03:30:38.971Z,5.10
2018-11-01T03:33:07.573Z,5.73
2018-11-01T03:35:36.284Z,10.23
2018-11-01T03:38:04.896Z,6.93
2018-11-01T03:40:33.676Z,11.13
2018-11-01T03:43:02.379Z,8.20
2018-11-01T03:45:31.051Z,4.47
2018-11-01T03:47:59.597Z,6.57
2018-11-01T03:50:28.224Z,6.87
2018-11-01T03:52:56.848Z,6.40
2018-11-01T03:55:25.738Z,11.47
2018-11-01T03:57:54.338Z,8.10
2018-11-01T04:00:22.928Z,6.20
2018-11-01T04:02:51.600Z,10.20
2018-11-01T04:05:20.211Z,3.57
2018-11-01T04:07:48.838Z,4.70
2018-11-01T04:10:17.567Z,8.43
2018-11-01T04:12:46.239Z,6.70
2018-11-01T04:15:15.428Z,9.10
2018-11-01T04:17:43.977Z,6.73
2018-11-01T04:20:13.545Z,13.27
2018-11-01T04:22:42.793Z,8.40
2018-11-01T04:25:11.452Z,8.40
2018-11-01T04:27:40.085Z,8.47
2018-11-01T04:30:09.182Z,5.90
2018-11-01T04:32:37.772Z,10.83
2018-11-01T04:35:07.113Z,9.43
2018-11-01T04:37:35.782Z,5.10
2018-11-01T04:40:04.490Z,5.37
2018-11-01T04:42:33.124Z,7.07
2018-11-01T04:45:01.743Z,7.80
2018-11-01T04:47:30.393Z,10.10
2018-11-01T04:49:58.987Z,8.60
2018-11-01T04:52:27.654Z,10.87
2018-11-01T04:54:56.279Z,7.20
2018-11-01T04:57:24.892Z,2.50
2018-11-01T04:59:53.539Z,10.03
2018-11-01T05:02:22.191Z,8.77
2018-11-01T05:04:50.850Z,10.07
2018-11-01T05:07:19.463Z,3.57
2018-11-01T05:09:48.080Z,11.10
2018-11-01T05:12:16.724Z,6.83
2018-11-01T05:14:45.348Z,8.90
2018-11-01T05:17:14.005Z,9.73
2018-11-01T05:19:42.625Z,6.80
2018-11-01T05:22:11.340Z,12.23
2018-11-01T05:24:39.989Z,6.93
2018-11-01T05:27:08.637Z,18.20
2018-11-01T05:29:37.283Z,8.30
2018-11-01T05:32:05.868Z,5.77
2018-11-01T05:34:34.533Z,11.80
2018-11-01T05:37:03.166Z,13.07
2018-11-01T05:39:31.770Z,11.40
2018-11-01T05:42:00.424Z,10.80
2018-11-01T05:44:29.261Z,8.27
2018-11-01T05:46:57.882Z,10.83
2018-11-01T05:49:26.530Z,9.60
2018-11-01T05:51:55.157Z,18.10
2018-11-01T05:54:23.862Z,10.93
2018-11-01T05:56:52.480Z,12.60
2018-11-01T05:59:22.054Z,7.73
2018-11-01T06:01:52.650Z,8.83
2018-11-01T06:04:21.295Z,10.20
2018-11-01T06:06:49.974Z,8.40
2018-11-01T06:09:23.794Z,9.13
2018-11-01T06:11:52.446Z,7.50
2018-11-01T06:14:21.053Z,9.80
2018-11-01T06:16:49.970Z,11.43
2018-11-01T06:19:18.590Z,9.60
2018-11-01T06:21:47.220Z,7.67
2018-11-01T06:24:16.179Z,6.50
2018-11-01T06:26:45.449Z,9.33
2018-11-01T06:29:14.107Z,9.20
2018-11-01T06:31:42.745Z,12.03
2018-11-01T06:34:31.462Z,9.47
2018-11-01T06:37:00.368Z,5.20
2018-11-01T06:39:29.015Z,12.63
2018-11-01T06:41:57.626Z,16.47
2018-11-01T06:44:26.323Z,7.00
2018-11-01T06:46:54.889Z,11.53
2018-11-01T06:49:23.549Z,10.80
2018-11-01T06:51:52.217Z,8.20
2018-11-01T06:54:20.898Z,5.07
2018-11-01T06:56:49.594Z,5.77
2018-11-01T06:59:18.400Z,20.53
2018-11-01T07:01:46.801Z,5.07
2018-11-01T07:04:15.437Z,9.57
2018-11-01T07:06:44.050Z,6.67
2018-11-01T07:09:13.923Z,6.30
2018-11-01T07:11:42.908Z,6.73
2018-11-01T07:14:11.589Z,8.00
2018-11-01T07:16:40.278Z,15.00
2018-11-01T07:19:09.835Z,8.77
2018-11-01T07:21:38.808Z,10.17
2018-11-01T07:24:07.447Z,6.10
2018-11-01T07:26:36.157Z,7.27
2018-11-01T07:29:04.734Z,8.40
2018-11-01T07:31:33.419Z,13.73
2018-11-01T07:34:02.059Z,6.67
2018-11-01T07:36:30.758Z,9.73
2018-11-01T07:38:59.360Z,5.00
2018-11-01T07:41:28.018Z,9.20
2018-11-01T07:43:56.675Z,5.17
2018-11-01T07:46:25.321Z,4.73
2018-11-01T07:48:53.956Z,8.93
2018-11-01T07:51:22.610Z,8.17
2018-11-01T07:53:51.219Z,7.07
2018-11-01T07:56:20.118Z,13.63
2018-11-01T07:58:48.806Z,5.70
2018-11-01T08:01:17.429Z,9.63
2018-11-01T08:03:46.082Z,6.07
2018-11-01T08:06:14.786Z,13.20
2018-11-01T08:08:43.406Z,11.47
2018-11-01T08:11:12.162Z,7.60
2018-11-01T08:13:40.810Z,8.17
2018-11-01T08:16:09.561Z,12.20
2018-11-01T08:18:38.378Z,10.20
2018-11-01T08:21:07.322Z,3.60
2018-11-01T08:23:36.066Z,6.80
2018-11-01T08:26:04.771Z,13.83
2018-11-01T08:28:33.446Z,6.60
2018-11-01T08:31:02.125Z,6.57
2018-11-01T08:33:37.973Z,8.70
2018-11-01T08:36:06.888Z,4.53
2018-11-01T08:38:35.782Z,5.13
2018-11-01T08:41:04.533Z,9.50
2018-11-01T08:43:33.280Z,5.07
2018-11-01T08:46:02.099Z,6.77
2018-11-01T08:48:31.154Z,6.30
2018-11-01T08:50:59.887Z,6.93
2018-11-01T08:53:34.908Z,8.13
2018-11-01T08:56:06.417Z,12.37
2018-11-01T08:58:35.168Z,5.97
2018-11-01T09:01:04.272Z,11.77
2018-11-01T09:03:33.150Z,10.70
2018-11-01T09:06:01.915Z,12.70
2018-11-01T09:08:30.711Z,6.90
2018-11-01T09:10:59.630Z,10.83
2018-11-01T09:13:28.431Z,9.00
2018-11-01T09:15:57.123Z,9.13
2018-11-01T09:18:25.895Z,4.70
2018-11-01T09:20:54.712Z,9.87
2018-11-01T09:23:23.643Z,4.63
2018-11-01T09:25:52.571Z,13.47
2018-11-01T09:28:21.454Z,7.33
2018-11-01T09:30:50.299Z,8.50
2018-11-01T09:33:25.867Z,9.50
2018-11-01T09:35:54.646Z,4.47
2018-11-01T09:38:23.392Z,6.47
2018-11-01T09:40:52.205Z,9.40
2018-11-01T09:43:20.845Z,4.90
2018-11-01T09:45:49.511Z,8.20
2018-11-01T09:48:18.158Z,7.40
2018-11-01T09:50:46.796Z,10.80
2018-11-01T09:53:15.459Z,9.93
2018-11-01T09:55:44.287Z,6.47
2018-11-01T09:58:12.858Z,9.73
2018-11-01T10:00:41.919Z,5.20
2018-11-01T10:03:10.611Z,7.47
2018-11-01T10:05:39.373Z,6.03
2018-11-01T10:08:08.078Z,6.47
2018-11-01T10:10:37.012Z,9.80
2018-11-01T10:13:05.754Z,8.50
2018-11-01T10:15:34.593Z,4.13
2018-11-01T10:18:03.673Z,6.10
2018-11-01T10:20:31.917Z,6.97
2018-11-01T10:23:00.730Z,10.57
2018-11-01T10:25:29.500Z,8.20
2018-11-01T10:27:58.349Z,7.70
2018-11-01T10:30:27.073Z,11.13
2018-11-01T10:32:56.151Z,9.93
2018-11-01T10:35:24.891Z,9.50
2018-11-01T10:37:53.674Z,7.47
2018-11-01T10:40:22.504Z,9.30
2018-11-01T10:42:51.238Z,11.63
2018-11-01T10:45:19.910Z,12.37
2018-11-01T10:47:48.770Z,12.10
2018-11-01T10:50:18.803Z,4.10
2018-11-01T10:52:47.684Z,9.43
2018-11-01T10:55:16.983Z,22.27
2018-11-01T10:57:45.812Z,65.77
2018-11-01T11:00:19.754Z,13.47
2018-11-01T11:02:49.736Z,10.50
2018-11-01T11:05:20.068Z,12.13
2018-11-01T11:07:49.264Z,31.93
2018-11-01T11:10:18.774Z,24.00
2018-11-01T11:12:47.624Z,9.77
2018-11-01T11:15:16.496Z,16.20
2018-11-01T11:17:45.287Z,40.53
2018-11-01T11:20:14.256Z,40.33
2018-11-01T11:22:42.852Z,8.60
2018-11-01T11:25:12.542Z,15.90
2018-11-01T11:27:41.466Z,15.43
2018-11-01T11:30:11.680Z,18.50
2018-11-01T11:32:40.993Z,20.47
2018-11-01T11:35:10.671Z,20.77
2018-11-01T11:37:39.396Z,20.93
2018-11-01T11:40:09.646Z,13.87
2018-11-01T11:42:38.494Z,28.13
2018-11-01T11:45:08.042Z,14.73
2018-11-01T11:47:36.772Z,25.63
2018-11-01T11:50:06.301Z,36.20
2018-11-01T11:52:35.019Z,13.77
2018-11-01T11:55:03.660Z,6.73
2018-11-01T11:57:33.109Z,29.43
2018-11-01T12:00:01.802Z,20.63
2018-11-01T12:02:30.667Z,8.50
2018-11-01T12:04:59.346Z,18.90
2018-11-01T12:07:28.029Z,21.90
2018-11-01T12:09:56.738Z,12.50
2018-11-01T12:12:30.605Z,15.13
2018-11-01T12:14:59.387Z,15.63
2018-11-01T12:17:28.162Z,20.73
2018-11-01T12:20:00.071Z,16.50
2018-11-01T12:22:28.981Z,16.83
2018-11-01T12:24:57.813Z,15.13
2018-11-01T12:27:26.656Z,12.00
2018-11-01T12:29:55.418Z,17.37
2018-11-01T12:32:24.270Z,17.80
2018-11-01T12:34:53.090Z,15.97
2018-11-01T12:37:21.869Z,24.70
2018-11-01T12:39:54.100Z,22.83
2018-11-01T12:42:23.280Z,23.27
2018-11-01T12:44:52.486Z,11.63
2018-11-01T12:47:21.238Z,18.63
2018-11-01T12:49:50.724Z,17.70
2018-11-01T12:52:19.856Z,17.07
2018-11-01T12:54:48.603Z,20.13
2018-11-01T12:57:17.552Z,20.93
2018-11-01T12:59:46.423Z,21.13
2018-11-01T13:02:18.269Z,12.83
2018-11-01T13:04:47.769Z,23.53
2018-11-01T13:07:17.751Z,22.30
2018-11-01T13:09:46.944Z,23.97
2018-11-01T13:12:15.639Z,22.20
2018-11-01T13:14:46.935Z,20.03
2018-11-01T13:17:17.419Z,15.20
2018-11-01T13:19:46.315Z,18.83
2018-11-01T13:22:15.065Z,80.17
2018-11-01T13:24:43.990Z,20.57
2018-11-01T13:27:12.903Z,21.73
2018-11-01T13:29:41.704Z,19.73
2018-11-01T13:32:10.627Z,24.90
2018-11-01T13:34:39.636Z,31.87
2018-11-01T13:37:08.483Z,12.47
2018-11-01T13:39:37.352Z,25.20
2018-11-01T13:42:06.306Z,20.10
2018-11-01T13:44:35.078Z,30.83
2018-11-01T13:47:04.290Z,23.80
2018-11-01T13:49:32.966Z,30.00
2018-11-01T13:52:01.799Z,29.23
2018-11-01T13:54:30.857Z,52.63
2018-11-01T13:56:59.594Z,26.10
2018-11-01T13:59:28.481Z,28.20
2018-11-01T14:01:57.507Z,32.27
2018-11-01T14:04:26.353Z,12.73
2018-11-01T14:06:55.062Z,27.10
2018-11-01T14:09:23.801Z,24.83
2018-11-01T14:11:52.647Z,13.83
2018-11-01T14:14:22.029Z,9.00
2018-11-01T14:16:50.589Z,19.40
2018-11-01T14:19:19.257Z,30.40
2018-11-01T14:21:48.091Z,19.67
2018-11-01T14:24:16.976Z,15.87
2018-11-01T14:26:45.918Z,41.00
2018-11-01T14:29:14.755Z,47.40
2018-11-01T14:31:43.590Z,24.97
2018-11-01T14:34:12.365Z,22.10
2018-11-01T14:36:41.274Z,17.67
2018-11-01T14:39:12.567Z,62.73
2018-11-01T14:41:41.445Z,19.97
2018-11-01T14:44:10.208Z,35.20
2018-11-01T14:46:44.422Z,38.27
2018-11-01T14:49:13.235Z,34.93
2018-11-01T14:51:42.049Z,25.43
2018-11-01T14:54:11.691Z,19.20
2018-11-01T14:56:41.112Z,20.30
2018-11-01T14:59:10.270Z,33.73
2018-11-01T15:01:37.529Z,47.70
2018-11-01T15:04:06.224Z,21.70
2018-11-01T15:06:34.933Z,28.57
2018-11-01T15:09:05.495Z,23.40
2018-11-01T15:11:34.333Z,21.60
2018-11-01T15:14:03.087Z,30.97
2018-11-01T15:16:31.878Z,26.40
2018-11-01T15:19:01.841Z,21.13
2018-11-01T15:21:30.528Z,26.03
2018-11-01T15:23:59.238Z,14.10
2018-11-01T15:26:27.869Z,27.47
2018-11-01T15:28:56.514Z,16.73
2018-11-01T15:31:25.170Z,25.83
2018-11-01T15:33:53.820Z,21.00
2018-11-01T15:36:22.510Z,21.80
2018-11-01T15:38:51.206Z,37.10
2018-11-01T15:41:20.769Z,22.67
2018-11-01T15:43:49.490Z,16.80
2018-11-01T15:46:18.658Z,31.93
2018-11-01T15:48:47.405Z,26.17
2018-11-01T15:51:16.181Z,26.63
2018-11-01T15:53:45.178Z,19.13
2018-11-01T15:56:14.178Z,32.40
2018-11-01T15:58:42.982Z,19.17
2018-11-01T16:01:12.108Z,31.43
2018-11-01T16:03:40.886Z,28.63
2018-11-01T16:06:09.748Z,19.53
2018-11-01T16:08:38.503Z,29.60
2018-11-01T16:11:07.227Z,37.40
2018-11-01T16:13:35.947Z,29.47
2018-11-01T16:16:04.847Z,24.40
2018-11-01T16:18:33.576Z,21.27
2018-11-01T16:21:02.336Z,26.00
2018-11-01T16:23:31.046Z,19.50
2018-11-01T16:25:59.967Z,17.57
2018-11-01T16:28:28.857Z,24.23
2018-11-01T16:30:57.509Z,20.20
2018-11-01T16:33:26.251Z,30.97
2018-11-01T16:35:54.911Z,21.07
2018-11-01T16:38:23.590Z,25.07
2018-11-01T16:40:52.273Z,29.87
2018-11-01T16:43:22.480Z,29.03
2018-11-01T16:45:51.196Z,32.53
2018-11-01T16:48:20.294Z,35.50
2018-11-01T16:50:48.946Z,20.53
2018-11-01T16:53:18.254Z,16.93
2018-11-01T16:55:46.909Z,33.53
2018-11-01T16:58:15.643Z,21.70
2018-11-01T17:00:44.343Z,20.47
2018-11-01T17:03:13.123Z,27.30
2018-11-01T17:05:42.533Z,16.20
2018-11-01T17:08:11.416Z,20.17
2018-11-01T17:10:40.722Z,25.50
2018-11-01T17:13:09.756Z,30.53
2018-11-01T17:15:38.687Z,20.67
2018-11-01T17:18:07.560Z,22.37
2018-11-01T17:20:36.432Z,22.40
2018-11-01T17:23:05.350Z,29.43
2018-11-01T17:25:34.279Z,36.17
2018-11-01T17:28:03.101Z,22.63
2018-11-01T17:30:31.904Z,19.73
2018-11-01T17:33:00.847Z,27.10
2018-11-01T17:35:29.552Z,21.90
2018-11-01T17:37:58.246Z,27.43
2018-11-01T17:40:26.957Z,30.37
2018-11-01T17:42:55.705Z,28.97
2018-11-01T17:45:24.582Z,31.15
2018-11-01T17:47:53.259Z,25.43
2018-11-01T17:50:22.323Z,23.20
2018-11-01T17:52:51.568Z,35.10
2018-11-01T17:55:20.539Z,16.63
2018-11-01T17:57:49.603Z,29.40
2018-11-01T18:00:19.208Z,24.97
2018-11-01T18:02:48.153Z,26.13
2018-11-01T18:05:16.947Z,30.17
2018-11-01T18:07:45.821Z,19.50
2018-11-01T18:10:14.675Z,35.33
2018-11-01T18:12:43.483Z,26.97
2018-11-01T18:15:12.202Z,47.10
2018-11-01T18:17:40.912Z,23.90
2018-11-01T18:20:11.189Z,34.97
2018-11-01T18:22:40.001Z,22.70
2018-11-01T18:25:10.359Z,26.60
2018-11-01T18:27:39.087Z,26.23
2018-11-01T18:30:10.026Z,19.60
2018-11-01T18:32:39.045Z,30.70
2018-11-01T18:35:08.532Z,42.13
2018-11-01T18:37:37.290Z,19.70
2018-11-01T18:40:06.612Z,19.40
2018-11-01T18:42:35.423Z,22.93
2018-11-01T18:45:04.264Z,26.87
2018-11-01T18:47:33.664Z,21.10
2018-11-01T18:50:02.561Z,26.27
2018-11-01T18:52:32.759Z,27.77
2018-11-01T18:55:01.549Z,25.80
2018-11-01T18:57:30.499Z,36.00
2018-11-01T18:59:59.397Z,23.87
2018-11-01T19:02:28.598Z,28.60
2018-11-01T19:04:57.352Z,28.13
2018-11-01T19:07:26.250Z,33.40
2018-11-01T19:09:54.915Z,35.03
2018-11-01T19:12:23.614Z,24.17
2018-11-01T19:14:52.317Z,24.33
2018-11-01T19:19:55.016Z,30.10
2018-11-01T19:22:23.888Z,19.47
2018-11-01T19:24:52.578Z,31.20
2018-11-01T19:27:21.844Z,23.17
2018-11-01T19:29:50.332Z,20.00
2018-11-01T19:32:19.138Z,18.83
2018-11-01T19:34:47.897Z,25.13
2018-11-01T19:37:16.812Z,19.27
2018-11-01T19:39:45.746Z,17.80
2018-11-01T19:42:14.648Z,13.67
2018-11-01T19:44:43.484Z,26.93
2018-11-01T19:47:12.324Z,26.27
2018-11-01T19:49:41.215Z,20.70
2018-11-01T19:52:09.876Z,23.77
2018-11-01T19:54:38.617Z,35.93
2018-11-01T19:57:07.290Z,24.03
2018-11-01T19:59:35.976Z,19.23
2018-11-01T20:02:04.658Z,29.00
2018-11-01T20:04:33.362Z,19.17
2018-11-01T20:07:02.096Z,27.57
2018-11-01T20:09:30.771Z,23.43
2018-11-01T20:11:59.439Z,19.43
2018-11-01T20:14:28.475Z,18.07
2018-11-01T20:16:57.127Z,17.77
2018-11-01T20:19:25.820Z,18.40
2018-11-01T20:21:54.446Z,15.70
2018-11-01T20:24:23.046Z,28.80
2018-11-01T20:26:51.676Z,20.73
2018-11-01T20:29:20.357Z,22.23
2018-11-01T20:31:55.792Z,18.20
2018-11-01T20:34:25.059Z,20.93
2018-11-01T20:36:53.713Z,18.10
2018-11-01T20:39:23.300Z,14.50
2018-11-01T20:41:52.031Z,23.63
2018-11-01T20:44:20.807Z,17.73
2018-11-01T20:46:49.542Z,9.90
2018-11-01T20:49:18.221Z,11.60
2018-11-01T20:51:46.825Z,16.33
2018-11-01T20:54:15.593Z,12.60
2018-11-01T20:56:44.313Z,16.63
2018-11-01T20:59:13.013Z,13.03
2018-11-01T21:01:41.701Z,10.47
2018-11-01T21:04:10.786Z,13.97
2018-11-01T21:06:39.569Z,14.20
2018-11-01T21:09:10.889Z,11.83
2018-11-01T21:11:40.009Z,10.73
2018-11-01T21:14:08.646Z,16.97
2018-11-01T21:16:37.972Z,12.17
2018-11-01T21:19:07.768Z,10.27
2018-11-01T21:21:39.757Z,12.73
2018-11-01T21:24:08.521Z,14.70
2018-11-01T21:26:37.346Z,16.53
2018-11-01T21:29:06.228Z,14.87
2018-11-01T21:31:34.862Z,13.27
2018-11-01T21:34:03.640Z,8.60
2018-11-01T21:36:32.432Z,10.40
2018-11-01T21:39:02.284Z,10.67
2018-11-01T21:41:31.342Z,8.57
2018-11-01T21:44:00.269Z,19.73
2018-11-01T21:46:29.553Z,14.43
2018-11-01T21:48:58.663Z,6.30
2018-11-01T21:51:27.707Z,8.60
2018-11-01T21:53:57.425Z,12.57
2018-11-01T21:56:26.182Z,12.73
2018-11-01T21:58:54.998Z,14.50
2018-11-01T22:01:23.715Z,13.47
2018-11-01T22:03:52.394Z,9.93
2018-11-01T22:06:21.457Z,11.90
2018-11-01T22:08:50.128Z,12.17
2018-11-01T22:11:19.043Z,6.53
2018-11-01T22:13:47.730Z,10.60
2018-11-01T22:16:16.604Z,10.33
2018-11-01T22:18:45.438Z,10.30
2018-11-01T22:21:14.506Z,13.73
2018-11-01T22:23:43.222Z,10.20
2018-11-01T22:26:11.917Z,6.13
2018-11-01T22:28:41.081Z,12.23
2018-11-01T22:31:09.768Z,9.90
2018-11-01T22:33:38.534Z,6.63
2018-11-01T22:36:07.373Z,10.70
2018-11-01T22:38:36.270Z,10.33
2018-11-01T22:41:04.917Z,6.10
2018-11-01T22:43:33.661Z,7.70
2018-11-01T22:46:02.353Z,8.63
2018-11-01T22:48:31.142Z,8.33
2018-11-01T22:50:59.895Z,12.87
2018-11-01T22:53:34.014Z,14.70
2018-11-01T22:56:02.625Z,12.13
2018-11-01T22:58:31.750Z,6.43
2018-11-01T23:01:00.427Z,14.13
2018-11-01T23:03:29.238Z,11.97
2018-11-01T23:05:57.860Z,16.63
2018-11-01T23:08:26.467Z,12.03
2018-11-01T23:10:55.278Z,6.57
2018-11-01T23:13:23.891Z,7.80
2018-11-01T23:15:52.644Z,7.47
2018-11-01T23:18:21.283Z,12.70
2018-11-01T23:20:49.981Z,4.27
2018-11-01T23:23:18.594Z,12.17
2018-11-01T23:25:47.249Z,8.93
2018-11-01T23:28:15.838Z,6.53
2018-11-01T23:30:49.769Z,8.60
2018-11-01T23:33:18.366Z,12.50
2018-11-01T23:35:47.060Z,4.20
2018-11-01T23:38:20.905Z,6.63
2018-11-01T23:40:54.555Z,10.40
2018-11-01T23:43:28.264Z,10.33
2018-11-01T23:46:01.989Z,7.60
2018-11-01T23:48:29.683Z,8.77
2018-11-01T23:51:02.359Z,9.77
2018-11-01T23:53:32.506Z,7.73
2018-11-01T23:56:01.126Z,10.63
2018-11-01T23:58:29.744Z,7.00
